sensor_id;sensor_type;location;lat;lon;timestamp;P1;durP1;ratioP1;P2;durP2;ratioP2
76854;SDS011;66343;44.588;33.450;2023-04-01T00:01:44;8.98;;;2.03;;
76854;SDS011;66343;44.588;33.450;2023-04-01T00:04:18;9.23;;;2.03;;
76854;SDS011;66343;44.588;33.450;2023-04-01T00:06:51;10.73;;;2.30;;
76854;SDS011;66343;44.588;33.450;2023-04-01T00:09:21;10.40;;;2.25;;
76854;SDS011;66343;44.588;33.450;2023-04-01T00:11:50;11.63;;;2.33;;
76854;SDS011;66343;44.588;33.450;2023-04-01T00:14:20;8.23;;;1.90;;
76854;SDS011;66343;44.588;33.450;2023-04-01T00:16:51;8.35;;;1.85;;
76854;SDS011;66343;44.588;33.450;2023-04-01T00:19:20;9.40;;;2.13;;
76854;SDS011;66343;44.588;33.450;2023-04-01T00:21:50;8.70;;;2.10;;
76854;SDS011;66343;44.588;33.450;2023-04-01T00:24:21;8.98;;;2.47;;
76854;SDS011;66343;44.588;33.450;2023-04-01T00:26:51;8.00;;;2.00;;
76854;SDS011;66343;44.588;33.450;2023-04-01T00:29:20;9.43;;;2.45;;
76854;SDS011;66343;44.588;33.450;2023-04-01T00:31:49;10.27;;;2.40;;
76854;SDS011;66343;44.588;33.450;2023-04-01T00:34:21;8.70;;;2.47;;
76854;SDS011;66343;44.588;33.450;2023-04-01T00:36:50;8.77;;;2.45;;
76854;SDS011;66343;44.588;33.450;2023-04-01T00:39:20;13.25;;;2.58;;
76854;SDS011;66343;44.588;33.450;2023-04-01T00:41:52;10.15;;;2.40;;
76854;SDS011;66343;44.588;33.450;2023-04-01T00:44:24;8.48;;;2.25;;
76854;SDS011;66343;44.588;33.450;2023-04-01T00:46:56;10.02;;;2.75;;
76854;SDS011;66343;44.588;33.450;2023-04-01T00:49:32;7.72;;;2.30;;
76854;SDS011;66343;44.588;33.450;2023-04-01T00:52:04;8.73;;;2.60;;
76854;SDS011;66343;44.588;33.450;2023-04-01T00:54:36;9.93;;;2.72;;
76854;SDS011;66343;44.588;33.450;2023-04-01T00:57:12;10.27;;;2.40;;
76854;SDS011;66343;44.588;33.450;2023-04-01T00:59:46;12.40;;;2.58;;
76854;SDS011;66343;44.588;33.450;2023-04-01T01:02:17;10.70;;;2.78;;
76854;SDS011;66343;44.588;33.450;2023-04-01T01:04:47;11.63;;;2.80;;
76854;SDS011;66343;44.588;33.450;2023-04-01T01:10:19;8.30;;;2.60;;
76854;SDS011;66343;44.588;33.450;2023-04-01T01:29:13;10.13;;;2.67;;
76854;SDS011;66343;44.588;33.450;2023-04-01T01:31:58;11.20;;;2.55;;
76854;SDS011;66343;44.588;33.450;2023-04-01T01:41:39;8.82;;;2.70;;
76854;SDS011;66343;44.588;33.450;2023-04-01T01:49:18;7.05;;;2.58;;
76854;SDS011;66343;44.588;33.450;2023-04-01T01:51:52;7.28;;;2.35;;
76854;SDS011;66343;44.588;33.450;2023-04-01T01:54:21;9.15;;;2.70;;
76854;SDS011;66343;44.588;33.450;2023-04-01T01:56:55;8.23;;;2.50;;
76854;SDS011;66343;44.588;33.450;2023-04-01T01:59:41;7.10;;;2.22;;
76854;SDS011;66343;44.588;33.450;2023-04-01T02:02:18;6.95;;;2.22;;
76854;SDS011;66343;44.588;33.450;2023-04-01T02:04:48;8.30;;;2.40;;
76854;SDS011;66343;44.588;33.450;2023-04-01T02:07:20;9.70;;;2.25;;
76854;SDS011;66343;44.588;33.450;2023-04-01T02:09:56;8.70;;;2.28;;
76854;SDS011;66343;44.588;33.450;2023-04-01T02:12:25;9.30;;;2.30;;
76854;SDS011;66343;44.588;33.450;2023-04-01T02:14:58;9.23;;;2.13;;
76854;SDS011;66343;44.588;33.450;2023-04-01T02:17:34;7.13;;;1.92;;
76854;SDS011;66343;44.588;33.450;2023-04-01T02:20:15;9.73;;;2.35;;
76854;SDS011;66343;44.588;33.450;2023-04-01T02:22:49;7.82;;;1.88;;
76854;SDS011;66343;44.588;33.450;2023-04-01T02:25:24;8.35;;;2.30;;
76854;SDS011;66343;44.588;33.450;2023-04-01T02:27:59;8.43;;;2.40;;
76854;SDS011;66343;44.588;33.450;2023-04-01T02:30:29;9.75;;;2.50;;
76854;SDS011;66343;44.588;33.450;2023-04-01T02:33:03;7.53;;;2.13;;
76854;SDS011;66343;44.588;33.450;2023-04-01T02:35:35;6.57;;;2.10;;
76854;SDS011;66343;44.588;33.450;2023-04-01T02:38:07;5.60;;;1.88;;
76854;SDS011;66343;44.588;33.450;2023-04-01T02:40:48;6.72;;;2.17;;
76854;SDS011;66343;44.588;33.450;2023-04-01T02:43:22;10.25;;;2.17;;
76854;SDS011;66343;44.588;33.450;2023-04-01T02:45:51;7.20;;;2.10;;
76854;SDS011;66343;44.588;33.450;2023-04-01T02:48:21;10.63;;;2.60;;
76854;SDS011;66343;44.588;33.450;2023-04-01T02:50:50;5.88;;;2.05;;
76854;SDS011;66343;44.588;33.450;2023-04-01T02:53:20;8.15;;;2.17;;
76854;SDS011;66343;44.588;33.450;2023-04-01T02:55:50;8.60;;;2.08;;
76854;SDS011;66343;44.588;33.450;2023-04-01T02:58:22;8.15;;;2.25;;
76854;SDS011;66343;44.588;33.450;2023-04-01T03:00:54;7.93;;;2.35;;
76854;SDS011;66343;44.588;33.450;2023-04-01T03:03:27;7.00;;;2.15;;
76854;SDS011;66343;44.588;33.450;2023-04-01T03:06:06;5.88;;;2.25;;
76854;SDS011;66343;44.588;33.450;2023-04-01T03:08:39;9.68;;;2.80;;
76854;SDS011;66343;44.588;33.450;2023-04-01T03:11:11;8.68;;;2.72;;
76854;SDS011;66343;44.588;33.450;2023-04-01T03:13:46;7.97;;;2.55;;
76854;SDS011;66343;44.588;33.450;2023-04-01T03:16:20;8.70;;;2.60;;
76854;SDS011;66343;44.588;33.450;2023-04-01T03:18:53;7.85;;;2.90;;
76854;SDS011;66343;44.588;33.450;2023-04-01T03:21:28;8.02;;;2.72;;
76854;SDS011;66343;44.588;33.450;2023-04-01T03:24:00;7.97;;;2.53;;
76854;SDS011;66343;44.588;33.450;2023-04-01T03:26:29;7.38;;;2.40;;
76854;SDS011;66343;44.588;33.450;2023-04-01T03:29:02;7.07;;;2.50;;
76854;SDS011;66343;44.588;33.450;2023-04-01T03:31:32;6.97;;;2.80;;
76854;SDS011;66343;44.588;33.450;2023-04-01T03:34:03;7.60;;;2.30;;
76854;SDS011;66343;44.588;33.450;2023-04-01T03:36:35;7.97;;;2.90;;
76854;SDS011;66343;44.588;33.450;2023-04-01T03:39:10;8.10;;;2.83;;
76854;SDS011;66343;44.588;33.450;2023-04-01T03:41:44;7.70;;;2.50;;
76854;SDS011;66343;44.588;33.450;2023-04-01T03:44:16;8.30;;;2.80;;
76854;SDS011;66343;44.588;33.450;2023-04-01T03:46:52;6.68;;;2.92;;
76854;SDS011;66343;44.588;33.450;2023-04-01T03:49:24;7.00;;;2.38;;
76854;SDS011;66343;44.588;33.450;2023-04-01T03:51:56;8.73;;;2.70;;
76854;SDS011;66343;44.588;33.450;2023-04-01T03:54:25;7.88;;;2.13;;
76854;SDS011;66343;44.588;33.450;2023-04-01T03:56:54;6.57;;;2.22;;
76854;SDS011;66343;44.588;33.450;2023-04-01T03:59:28;17.73;;;2.70;;
76854;SDS011;66343;44.588;33.450;2023-04-01T04:02:00;6.57;;;2.80;;
76854;SDS011;66343;44.588;33.450;2023-04-01T04:04:34;7.65;;;2.45;;
76854;SDS011;66343;44.588;33.450;2023-04-01T04:07:06;7.32;;;2.70;;
76854;SDS011;66343;44.588;33.450;2023-04-01T04:09:55;7.53;;;2.10;;
76854;SDS011;66343;44.588;33.450;2023-04-01T04:12:24;5.53;;;1.85;;
76854;SDS011;66343;44.588;33.450;2023-04-01T04:14:56;5.72;;;2.25;;
76854;SDS011;66343;44.588;33.450;2023-04-01T04:17:25;7.20;;;2.28;;
76854;SDS011;66343;44.588;33.450;2023-04-01T04:19:59;6.20;;;2.13;;
76854;SDS011;66343;44.588;33.450;2023-04-01T04:22:34;7.57;;;2.25;;
76854;SDS011;66343;44.588;33.450;2023-04-01T04:25:08;7.75;;;2.22;;
76854;SDS011;66343;44.588;33.450;2023-04-01T04:27:40;8.02;;;2.33;;
76854;SDS011;66343;44.588;33.450;2023-04-01T04:30:13;8.85;;;2.40;;
76854;SDS011;66343;44.588;33.450;2023-04-01T04:32:45;7.20;;;2.22;;
76854;SDS011;66343;44.588;33.450;2023-04-01T04:35:19;8.93;;;3.00;;
76854;SDS011;66343;44.588;33.450;2023-04-01T04:37:56;7.28;;;2.35;;
76854;SDS011;66343;44.588;33.450;2023-04-01T04:40:27;8.15;;;2.25;;
76854;SDS011;66343;44.588;33.450;2023-04-01T04:43:04;7.72;;;2.20;;
76854;SDS011;66343;44.588;33.450;2023-04-01T04:45:34;8.15;;;2.67;;
76854;SDS011;66343;44.588;33.450;2023-04-01T04:48:03;9.13;;;2.72;;
76854;SDS011;66343;44.588;33.450;2023-04-01T04:50:33;7.35;;;1.88;;
76854;SDS011;66343;44.588;33.450;2023-04-01T04:53:02;6.57;;;2.20;;
76854;SDS011;66343;44.588;33.450;2023-04-01T04:55:37;7.53;;;2.55;;
76854;SDS011;66343;44.588;33.450;2023-04-01T04:58:50;8.77;;;2.22;;
76854;SDS011;66343;44.588;33.450;2023-04-01T05:01:23;7.82;;;2.10;;
76854;SDS011;66343;44.588;33.450;2023-04-01T05:03:58;8.68;;;2.35;;
76854;SDS011;66343;44.588;33.450;2023-04-01T05:06:30;9.70;;;2.83;;
76854;SDS011;66343;44.588;33.450;2023-04-01T05:09:00;7.32;;;2.03;;
76854;SDS011;66343;44.588;33.450;2023-04-01T05:11:32;9.95;;;2.65;;
76854;SDS011;66343;44.588;33.450;2023-04-01T05:14:01;7.68;;;2.25;;
76854;SDS011;66343;44.588;33.450;2023-04-01T05:16:32;6.68;;;1.90;;
76854;SDS011;66343;44.588;33.450;2023-04-01T05:19:04;7.78;;;2.28;;
76854;SDS011;66343;44.588;33.450;2023-04-01T05:21:35;8.40;;;2.20;;
76854;SDS011;66343;44.588;33.450;2023-04-01T05:24:07;7.25;;;2.20;;
76854;SDS011;66343;44.588;33.450;2023-04-01T05:26:41;8.45;;;2.30;;
76854;SDS011;66343;44.588;33.450;2023-04-01T05:29:12;6.68;;;2.35;;
76854;SDS011;66343;44.588;33.450;2023-04-01T05:31:51;10.18;;;2.40;;
76854;SDS011;66343;44.588;33.450;2023-04-01T05:34:26;8.48;;;2.38;;
76854;SDS011;66343;44.588;33.450;2023-04-01T05:37:00;9.82;;;2.35;;
76854;SDS011;66343;44.588;33.450;2023-04-01T05:39:35;15.88;;;3.55;;
76854;SDS011;66343;44.588;33.450;2023-04-01T05:42:08;12.57;;;2.75;;
76854;SDS011;66343;44.588;33.450;2023-04-01T05:44:39;8.68;;;2.30;;
76854;SDS011;66343;44.588;33.450;2023-04-01T05:47:32;9.43;;;3.17;;
76854;SDS011;66343;44.588;33.450;2023-04-01T05:50:07;10.52;;;2.47;;
76854;SDS011;66343;44.588;33.450;2023-04-01T05:52:39;8.32;;;2.50;;
76854;SDS011;66343;44.588;33.450;2023-04-01T05:55:13;6.40;;;2.40;;
76854;SDS011;66343;44.588;33.450;2023-04-01T05:57:47;9.77;;;2.30;;
76854;SDS011;66343;44.588;33.450;2023-04-01T06:00:18;7.25;;;2.22;;
76854;SDS011;66343;44.588;33.450;2023-04-01T06:02:53;9.65;;;2.78;;
76854;SDS011;66343;44.588;33.450;2023-04-01T06:05:25;5.85;;;2.03;;
76854;SDS011;66343;44.588;33.450;2023-04-01T06:08:15;9.13;;;2.35;;
76854;SDS011;66343;44.588;33.450;2023-04-01T06:13:37;6.25;;;1.88;;
76854;SDS011;66343;44.588;33.450;2023-04-01T06:22:22;6.93;;;2.58;;
76854;SDS011;66343;44.588;33.450;2023-04-01T06:25:33;9.18;;;2.42;;
76854;SDS011;66343;44.588;33.450;2023-04-01T06:37:17;8.10;;;2.05;;
76854;SDS011;66343;44.588;33.450;2023-04-01T06:46:43;7.45;;;2.28;;
76854;SDS011;66343;44.588;33.450;2023-04-01T06:49:57;8.60;;;2.25;;
76854;SDS011;66343;44.588;33.450;2023-04-01T06:53:24;9.02;;;2.38;;
76854;SDS011;66343;44.588;33.450;2023-04-01T06:56:17;7.30;;;2.03;;
76854;SDS011;66343;44.588;33.450;2023-04-01T06:59:05;7.88;;;2.53;;
76854;SDS011;66343;44.588;33.450;2023-04-01T07:01:44;9.65;;;2.15;;
76854;SDS011;66343;44.588;33.450;2023-04-01T07:04:22;8.02;;;2.22;;
76854;SDS011;66343;44.588;33.450;2023-04-01T07:07:43;9.18;;;2.30;;
76854;SDS011;66343;44.588;33.450;2023-04-01T07:10:14;9.50;;;2.20;;
76854;SDS011;66343;44.588;33.450;2023-04-01T07:13:33;6.93;;;1.98;;
76854;SDS011;66343;44.588;33.450;2023-04-01T07:19:23;9.27;;;3.22;;
76854;SDS011;66343;44.588;33.450;2023-04-01T07:25:29;8.60;;;2.47;;
76854;SDS011;66343;44.588;33.450;2023-04-01T07:28:30;10.00;;;2.05;;
76854;SDS011;66343;44.588;33.450;2023-04-01T07:31:25;6.60;;;2.22;;
76854;SDS011;66343;44.588;33.450;2023-04-01T07:34:19;7.40;;;2.05;;
76854;SDS011;66343;44.588;33.450;2023-04-01T07:42:54;6.47;;;2.08;;
76854;SDS011;66343;44.588;33.450;2023-04-01T07:51:41;7.20;;;2.15;;
76854;SDS011;66343;44.588;33.450;2023-04-01T07:59:59;6.32;;;2.33;;
76854;SDS011;66343;44.588;33.450;2023-04-01T08:06:15;8.18;;;2.20;;
76854;SDS011;66343;44.588;33.450;2023-04-01T08:08:53;8.82;;;2.30;;
76854;SDS011;66343;44.588;33.450;2023-04-01T08:12:04;7.00;;;2.00;;
76854;SDS011;66343;44.588;33.450;2023-04-01T08:20:28;7.60;;;1.83;;
76854;SDS011;66343;44.588;33.450;2023-04-01T08:28:54;9.18;;;2.30;;
76854;SDS011;66343;44.588;33.450;2023-04-01T08:31:58;7.10;;;2.55;;
76854;SDS011;66343;44.588;33.450;2023-04-01T08:34:42;8.70;;;2.55;;
76854;SDS011;66343;44.588;33.450;2023-04-01T08:37:31;9.05;;;2.22;;
76854;SDS011;66343;44.588;33.450;2023-04-01T08:40:50;9.10;;;2.13;;
76854;SDS011;66343;44.588;33.450;2023-04-01T08:43:12;8.18;;;1.90;;
76854;SDS011;66343;44.588;33.450;2023-04-01T08:51:41;4.78;;;1.85;;
76854;SDS011;66343;44.588;33.450;2023-04-01T08:57:20;6.85;;;2.33;;
76854;SDS011;66343;44.588;33.450;2023-04-01T09:00:31;8.90;;;2.40;;
76854;SDS011;66343;44.588;33.450;2023-04-01T09:03:23;7.75;;;2.42;;
76854;SDS011;66343;44.588;33.450;2023-04-01T09:06:26;8.98;;;2.30;;
76854;SDS011;66343;44.588;33.450;2023-04-01T09:12:00;6.70;;;1.90;;
76854;SDS011;66343;44.588;33.450;2023-04-01T09:14:54;6.80;;;2.17;;
76854;SDS011;66343;44.588;33.450;2023-04-01T09:20:55;8.57;;;2.33;;
76854;SDS011;66343;44.588;33.450;2023-04-01T09:44:01;7.25;;;2.33;;
76854;SDS011;66343;44.588;33.450;2023-04-01T09:46:51;7.40;;;2.17;;
76854;SDS011;66343;44.588;33.450;2023-04-01T09:55:50;6.35;;;2.58;;
76854;SDS011;66343;44.588;33.450;2023-04-01T10:02:04;8.80;;;2.95;;
76854;SDS011;66343;44.588;33.450;2023-04-01T10:13:30;7.13;;;2.78;;
76854;SDS011;66343;44.588;33.450;2023-04-01T10:16:34;9.18;;;2.45;;
76854;SDS011;66343;44.588;33.450;2023-04-01T10:25:18;10.52;;;2.58;;
76854;SDS011;66343;44.588;33.450;2023-04-01T10:28:26;8.38;;;2.55;;
76854;SDS011;66343;44.588;33.450;2023-04-01T10:31:49;8.13;;;2.92;;
76854;SDS011;66343;44.588;33.450;2023-04-01T10:48:02;9.15;;;2.63;;
76854;SDS011;66343;44.588;33.450;2023-04-01T10:59:57;7.95;;;2.78;;
76854;SDS011;66343;44.588;33.450;2023-04-01T11:09:36;8.35;;;2.95;;
76854;SDS011;66343;44.588;33.450;2023-04-01T11:13:02;9.75;;;3.30;;
76854;SDS011;66343;44.588;33.450;2023-04-01T11:15:59;7.88;;;2.65;;
76854;SDS011;66343;44.588;33.450;2023-04-01T11:21:39;9.98;;;2.90;;
76854;SDS011;66343;44.588;33.450;2023-04-01T11:33:33;8.75;;;2.67;;
76854;SDS011;66343;44.588;33.450;2023-04-01T11:36:25;9.30;;;2.97;;
76854;SDS011;66343;44.588;33.450;2023-04-01T11:42:33;7.95;;;2.75;;
76854;SDS011;66343;44.588;33.450;2023-04-01T11:49:00;10.07;;;3.00;;
76854;SDS011;66343;44.588;33.450;2023-04-01T11:51:59;9.13;;;2.67;;
76854;SDS011;66343;44.588;33.450;2023-04-01T12:04:19;10.52;;;3.10;;
76854;SDS011;66343;44.588;33.450;2023-04-01T12:12:47;8.20;;;2.60;;
76854;SDS011;66343;44.588;33.450;2023-04-01T12:18:30;9.93;;;3.70;;
76854;SDS011;66343;44.588;33.450;2023-04-01T12:21:17;12.25;;;4.15;;
76854;SDS011;66343;44.588;33.450;2023-04-01T12:24:04;12.00;;;3.47;;
76854;SDS011;66343;44.588;33.450;2023-04-01T12:35:20;9.07;;;3.05;;
76854;SDS011;66343;44.588;33.450;2023-04-01T12:46:42;10.23;;;3.30;;
76854;SDS011;66343;44.588;33.450;2023-04-01T12:55:57;8.13;;;3.25;;
76854;SDS011;66343;44.588;33.450;2023-04-01T12:58:23;9.32;;;3.10;;
76854;SDS011;66343;44.588;33.450;2023-04-01T13:06:59;10.13;;;3.38;;
76854;SDS011;66343;44.588;33.450;2023-04-01T13:12:44;8.88;;;3.17;;
76854;SDS011;66343;44.588;33.450;2023-04-01T13:29:35;10.10;;;2.97;;
76854;SDS011;66343;44.588;33.450;2023-04-01T13:41:26;10.18;;;3.55;;
76854;SDS011;66343;44.588;33.450;2023-04-01T13:44:10;10.40;;;3.80;;
76854;SDS011;66343;44.588;33.450;2023-04-01T13:49:57;10.15;;;3.20;;
76854;SDS011;66343;44.588;33.450;2023-04-01T13:53:04;11.07;;;3.47;;
76854;SDS011;66343;44.588;33.450;2023-04-01T14:01:13;9.88;;;3.30;;
76854;SDS011;66343;44.588;33.450;2023-04-01T14:18:22;8.13;;;3.15;;
76854;SDS011;66343;44.588;33.450;2023-04-01T14:24:17;10.57;;;3.60;;
76854;SDS011;66343;44.588;33.450;2023-04-01T14:30:26;9.13;;;2.90;;
76854;SDS011;66343;44.588;33.450;2023-04-01T14:47:53;10.05;;;2.90;;
76854;SDS011;66343;44.588;33.450;2023-04-01T14:50:41;10.32;;;3.20;;
76854;SDS011;66343;44.588;33.450;2023-04-01T14:53:26;9.50;;;3.97;;
76854;SDS011;66343;44.588;33.450;2023-04-01T14:56:07;10.13;;;3.20;;
76854;SDS011;66343;44.588;33.450;2023-04-01T14:58:46;9.50;;;3.22;;
76854;SDS011;66343;44.588;33.450;2023-04-01T15:04:07;9.23;;;3.05;;
76854;SDS011;66343;44.588;33.450;2023-04-01T15:06:54;8.55;;;2.80;;
76854;SDS011;66343;44.588;33.450;2023-04-01T15:12:17;8.80;;;2.83;;
76854;SDS011;66343;44.588;33.450;2023-04-01T15:15:15;7.68;;;2.80;;
76854;SDS011;66343;44.588;33.450;2023-04-01T15:21:16;10.30;;;3.15;;
76854;SDS011;66343;44.588;33.450;2023-04-01T15:26:27;8.95;;;2.88;;
76854;SDS011;66343;44.588;33.450;2023-04-01T15:29:32;9.77;;;3.15;;
76854;SDS011;66343;44.588;33.450;2023-04-01T15:32:26;8.13;;;3.00;;
76854;SDS011;66343;44.588;33.450;2023-04-01T15:35:14;9.35;;;2.70;;
76854;SDS011;66343;44.588;33.450;2023-04-01T15:38:28;8.23;;;3.17;;
76854;SDS011;66343;44.588;33.450;2023-04-01T15:43:46;9.38;;;3.28;;
76854;SDS011;66343;44.588;33.450;2023-04-01T15:52:19;8.80;;;2.78;;
76854;SDS011;66343;44.588;33.450;2023-04-01T15:55:19;7.55;;;2.90;;
76854;SDS011;66343;44.588;33.450;2023-04-01T15:58:11;8.90;;;2.78;;
76854;SDS011;66343;44.588;33.450;2023-04-01T16:01:22;8.68;;;2.78;;
76854;SDS011;66343;44.588;33.450;2023-04-01T16:04:31;11.13;;;3.58;;
76854;SDS011;66343;44.588;33.450;2023-04-01T16:07:24;7.90;;;2.67;;
76854;SDS011;66343;44.588;33.450;2023-04-01T16:30:03;8.40;;;3.03;;
76854;SDS011;66343;44.588;33.450;2023-04-01T16:33:21;9.38;;;2.92;;
76854;SDS011;66343;44.588;33.450;2023-04-01T16:39:09;7.78;;;2.65;;
76854;SDS011;66343;44.588;33.450;2023-04-01T16:47:38;9.13;;;2.85;;
76854;SDS011;66343;44.588;33.450;2023-04-01T16:55:43;8.27;;;2.60;;
76854;SDS011;66343;44.588;33.450;2023-04-01T17:00:58;8.95;;;3.00;;
76854;SDS011;66343;44.588;33.450;2023-04-01T17:03:46;8.65;;;2.70;;
76854;SDS011;66343;44.588;33.450;2023-04-01T17:12:01;8.88;;;2.95;;
76854;SDS011;66343;44.588;33.450;2023-04-01T17:14:54;9.90;;;2.85;;
76854;SDS011;66343;44.588;33.450;2023-04-01T17:17:45;8.45;;;2.55;;
76854;SDS011;66343;44.588;33.450;2023-04-01T17:20:46;9.43;;;2.75;;
76854;SDS011;66343;44.588;33.450;2023-04-01T17:29:05;7.50;;;2.58;;
76854;SDS011;66343;44.588;33.450;2023-04-01T17:45:56;8.15;;;2.97;;
76854;SDS011;66343;44.588;33.450;2023-04-01T17:54:09;9.38;;;2.85;;
76854;SDS011;66343;44.588;33.450;2023-04-01T18:02:58;7.18;;;2.47;;
76854;SDS011;66343;44.588;33.450;2023-04-01T18:08:41;8.65;;;2.72;;
76854;SDS011;66343;44.588;33.450;2023-04-01T18:14:31;8.60;;;2.83;;
76854;SDS011;66343;44.588;33.450;2023-04-01T18:23:03;6.35;;;2.05;;
76854;SDS011;66343;44.588;33.450;2023-04-01T18:25:50;7.43;;;2.75;;
76854;SDS011;66343;44.588;33.450;2023-04-01T18:28:40;8.10;;;2.63;;
76854;SDS011;66343;44.588;33.450;2023-04-01T18:31:20;12.30;;;2.55;;
76854;SDS011;66343;44.588;33.450;2023-04-01T18:34:00;7.10;;;2.55;;
76854;SDS011;66343;44.588;33.450;2023-04-01T18:36:40;7.82;;;2.50;;
76854;SDS011;66343;44.588;33.450;2023-04-01T18:39:39;7.70;;;2.35;;
76854;SDS011;66343;44.588;33.450;2023-04-01T18:42:16;7.10;;;2.75;;
76854;SDS011;66343;44.588;33.450;2023-04-01T18:44:57;7.13;;;2.60;;
76854;SDS011;66343;44.588;33.450;2023-04-01T19:04:52;8.77;;;2.88;;
76854;SDS011;66343;44.588;33.450;2023-04-01T19:07:53;8.30;;;2.38;;
76854;SDS011;66343;44.588;33.450;2023-04-01T19:13:20;6.90;;;2.50;;
76854;SDS011;66343;44.588;33.450;2023-04-01T19:15:57;8.90;;;3.22;;
76854;SDS011;66343;44.588;33.450;2023-04-01T19:22:13;6.55;;;2.60;;
76854;SDS011;66343;44.588;33.450;2023-04-01T19:28:01;9.05;;;3.35;;
76854;SDS011;66343;44.588;33.450;2023-04-01T19:30:53;8.82;;;3.13;;
76854;SDS011;66343;44.588;33.450;2023-04-01T19:33:34;7.15;;;2.83;;
76854;SDS011;66343;44.588;33.450;2023-04-01T19:36:29;7.82;;;2.80;;
76854;SDS011;66343;44.588;33.450;2023-04-01T19:50:37;7.07;;;2.10;;
76854;SDS011;66343;44.588;33.450;2023-04-01T19:56:14;8.00;;;2.40;;
76854;SDS011;66343;44.588;33.450;2023-04-01T19:58:47;6.30;;;2.00;;
76854;SDS011;66343;44.588;33.450;2023-04-01T20:01:28;5.35;;;1.92;;
76854;SDS011;66343;44.588;33.450;2023-04-01T20:07:11;6.93;;;2.30;;
76854;SDS011;66343;44.588;33.450;2023-04-01T20:10:23;8.23;;;2.17;;
76854;SDS011;66343;44.588;33.450;2023-04-01T20:13:23;7.10;;;2.40;;
76854;SDS011;66343;44.588;33.450;2023-04-01T20:16:15;9.40;;;2.55;;
76854;SDS011;66343;44.588;33.450;2023-04-01T20:18:58;6.45;;;2.38;;
76854;SDS011;66343;44.588;33.450;2023-04-01T20:21:31;7.47;;;2.33;;
76854;SDS011;66343;44.588;33.450;2023-04-01T20:26:47;7.20;;;2.65;;
76854;SDS011;66343;44.588;33.450;2023-04-01T20:32:18;6.60;;;2.20;;
76854;SDS011;66343;44.588;33.450;2023-04-01T20:35:25;7.68;;;2.42;;
76854;SDS011;66343;44.588;33.450;2023-04-01T20:38:28;8.10;;;2.35;;
76854;SDS011;66343;44.588;33.450;2023-04-01T20:43:50;9.57;;;2.72;;
76854;SDS011;66343;44.588;33.450;2023-04-01T20:49:38;5.68;;;2.30;;
76854;SDS011;66343;44.588;33.450;2023-04-01T20:57:19;8.70;;;2.92;;
76854;SDS011;66343;44.588;33.450;2023-04-01T21:17:09;7.38;;;3.35;;
76854;SDS011;66343;44.588;33.450;2023-04-01T21:22:45;8.73;;;3.53;;
76854;SDS011;66343;44.588;33.450;2023-04-01T21:29:11;8.38;;;3.60;;
76854;SDS011;66343;44.588;33.450;2023-04-01T21:34:52;6.75;;;3.33;;
76854;SDS011;66343;44.588;33.450;2023-04-01T21:46:42;7.40;;;3.53;;
76854;SDS011;66343;44.588;33.450;2023-04-01T22:06:40;6.80;;;3.10;;
76854;SDS011;66343;44.588;33.450;2023-04-01T22:09:36;8.85;;;2.97;;
76854;SDS011;66343;44.588;33.450;2023-04-01T22:15:09;7.15;;;2.83;;
76854;SDS011;66343;44.588;33.450;2023-04-01T22:18:06;6.82;;;2.95;;
76854;SDS011;66343;44.588;33.450;2023-04-01T22:32:48;6.95;;;2.97;;
76854;SDS011;66343;44.588;33.450;2023-04-01T22:35:26;8.52;;;3.50;;
76854;SDS011;66343;44.588;33.450;2023-04-01T22:38:18;6.18;;;2.88;;
76854;SDS011;66343;44.588;33.450;2023-04-01T22:41:20;8.18;;;3.33;;
76854;SDS011;66343;44.588;33.450;2023-04-01T22:43:57;6.80;;;2.78;;
76854;SDS011;66343;44.588;33.450;2023-04-01T22:46:40;6.60;;;3.35;;
76854;SDS011;66343;44.588;33.450;2023-04-01T22:49:32;6.75;;;2.83;;
76854;SDS011;66343;44.588;33.450;2023-04-01T23:01:30;8.32;;;3.00;;
76854;SDS011;66343;44.588;33.450;2023-04-01T23:03:40;6.90;;;3.03;;
76854;SDS011;66343;44.588;33.450;2023-04-01T23:11:43;7.45;;;2.88;;
76854;SDS011;66343;44.588;33.450;2023-04-01T23:19:27;7.18;;;3.10;;
76854;SDS011;66343;44.588;33.450;2023-04-01T23:25:34;6.80;;;2.90;;
76854;SDS011;66343;44.588;33.450;2023-04-01T23:28:24;7.22;;;2.83;;
76854;SDS011;66343;44.588;33.450;2023-04-01T23:36:46;7.32;;;2.92;;
76854;SDS011;66343;44.588;33.450;2023-04-01T23:39:29;7.15;;;2.50;;
76854;SDS011;66343;44.588;33.450;2023-04-01T23:42:05;6.78;;;2.67;;
76854;SDS011;66343;44.588;33.450;2023-04-01T23:44:58;7.22;;;2.75;;
76854;SDS011;66343;44.588;33.450;2023-04-01T23:47:36;7.28;;;2.88;;
76854;SDS011;66343;44.588;33.450;2023-04-01T23:50:22;7.35;;;2.90;;
76854;SDS011;66343;44.588;33.450;2023-04-01T23:52:56;7.05;;;2.85;;
76854;SDS011;66343;44.588;33.450;2023-04-01T23:55:32;7.57;;;2.53;;
